sensor_id;sensor_type;location;lat;lon;timestamp;P1;durP1;ratioP1;P2;durP2;ratioP2
17141;SDS011;32805;53.556;9.944;2023-04-24T00:00:06;8.85;;;7.95;;
17141;SDS011;32805;53.556;9.944;2023-04-24T00:02:37;10.40;;;8.00;;
17141;SDS011;32805;53.556;9.944;2023-04-24T00:05:07;8.77;;;7.88;;
17141;SDS011;32805;53.556;9.944;2023-04-24T00:07:35;8.15;;;7.35;;
17141;SDS011;32805;53.556;9.944;2023-04-24T00:10:03;8.60;;;7.70;;
17141;SDS011;32805;53.556;9.944;2023-04-24T00:12:31;8.02;;;7.22;;
17141;SDS011;32805;53.556;9.944;2023-04-24T00:14:58;9.05;;;7.70;;
17141;SDS011;32805;53.556;9.944;2023-04-24T00:17:26;8.60;;;7.80;;
17141;SDS011;32805;53.556;9.944;2023-04-24T00:19:55;9.38;;;7.90;;
17141;SDS011;32805;53.556;9.944;2023-04-24T00:22:24;9.02;;;7.95;;
17141;SDS011;32805;53.556;9.944;2023-04-24T00:24:53;8.80;;;7.75;;
17141;SDS011;32805;53.556;9.944;2023-04-24T00:27:21;8.38;;;7.57;;
17141;SDS011;32805;53.556;9.944;2023-04-24T00:29:49;9.23;;;8.32;;
17141;SDS011;32805;53.556;9.944;2023-04-24T00:32:16;9.13;;;7.85;;
17141;SDS011;32805;53.556;9.944;2023-04-24T00:34:44;9.35;;;7.22;;
17141;SDS011;32805;53.556;9.944;2023-04-24T00:37:13;8.73;;;7.35;;
17141;SDS011;32805;53.556;9.944;2023-04-24T00:39:43;8.55;;;7.25;;
17141;SDS011;32805;53.556;9.944;2023-04-24T00:42:11;8.02;;;7.22;;
17141;SDS011;32805;53.556;9.944;2023-04-24T00:44:39;7.93;;;7.13;;
17141;SDS011;32805;53.556;9.944;2023-04-24T00:47:07;7.00;;;6.22;;
17141;SDS011;32805;53.556;9.944;2023-04-24T00:49:35;8.10;;;6.90;;
17141;SDS011;32805;53.556;9.944;2023-04-24T00:52:03;7.50;;;6.72;;
17141;SDS011;32805;53.556;9.944;2023-04-24T00:54:35;8.55;;;6.80;;
17141;SDS011;32805;53.556;9.944;2023-04-24T00:57:03;7.07;;;6.47;;
17141;SDS011;32805;53.556;9.944;2023-04-24T00:59:31;7.90;;;7.20;;
17141;SDS011;32805;53.556;9.944;2023-04-24T01:01:59;7.82;;;6.78;;
17141;SDS011;32805;53.556;9.944;2023-04-24T01:04:27;8.18;;;7.45;;
17141;SDS011;32805;53.556;9.944;2023-04-24T01:06:54;7.43;;;6.68;;
17141;SDS011;32805;53.556;9.944;2023-04-24T01:09:23;7.70;;;6.90;;
17141;SDS011;32805;53.556;9.944;2023-04-24T01:11:53;7.13;;;6.43;;
17141;SDS011;32805;53.556;9.944;2023-04-24T01:14:21;8.32;;;6.78;;
17141;SDS011;32805;53.556;9.944;2023-04-24T01:16:49;8.25;;;6.85;;
17141;SDS011;32805;53.556;9.944;2023-04-24T01:19:17;8.38;;;6.68;;
17141;SDS011;32805;53.556;9.944;2023-04-24T01:21:46;7.70;;;7.00;;
17141;SDS011;32805;53.556;9.944;2023-04-24T01:24:18;9.02;;;7.05;;
17141;SDS011;32805;53.556;9.944;2023-04-24T01:26:46;7.72;;;6.90;;
17141;SDS011;32805;53.556;9.944;2023-04-24T01:29:14;7.22;;;6.53;;
17141;SDS011;32805;53.556;9.944;2023-04-24T01:31:42;7.10;;;6.40;;
17141;SDS011;32805;53.556;9.944;2023-04-24T01:34:10;6.60;;;6.00;;
17141;SDS011;32805;53.556;9.944;2023-04-24T01:36:38;6.97;;;6.28;;
17141;SDS011;32805;53.556;9.944;2023-04-24T01:39:06;6.22;;;5.18;;
17141;SDS011;32805;53.556;9.944;2023-04-24T01:41:35;7.22;;;5.55;;
17141;SDS011;32805;53.556;9.944;2023-04-24T01:44:03;6.47;;;5.70;;
17141;SDS011;32805;53.556;9.944;2023-04-24T01:46:30;6.28;;;5.00;;
17141;SDS011;32805;53.556;9.944;2023-04-24T01:49:00;5.30;;;4.82;;
17141;SDS011;32805;53.556;9.944;2023-04-24T01:51:28;4.80;;;4.38;;
17141;SDS011;32805;53.556;9.944;2023-04-24T01:53:56;4.95;;;4.45;;
17141;SDS011;32805;53.556;9.944;2023-04-24T01:56:23;4.40;;;3.95;;
17141;SDS011;32805;53.556;9.944;2023-04-24T01:58:53;4.10;;;3.70;;
17141;SDS011;32805;53.556;9.944;2023-04-24T02:01:23;4.50;;;3.85;;
17141;SDS011;32805;53.556;9.944;2023-04-24T02:03:51;4.97;;;3.67;;
17141;SDS011;32805;53.556;9.944;2023-04-24T02:06:18;5.05;;;4.30;;
17141;SDS011;32805;53.556;9.944;2023-04-24T02:08:46;3.53;;;3.22;;
17141;SDS011;32805;53.556;9.944;2023-04-24T02:11:14;4.03;;;3.05;;
17141;SDS011;32805;53.556;9.944;2023-04-24T02:13:41;3.15;;;2.83;;
17141;SDS011;32805;53.556;9.944;2023-04-24T02:16:10;3.00;;;2.70;;
17141;SDS011;32805;53.556;9.944;2023-04-24T02:18:38;3.00;;;2.50;;
17141;SDS011;32805;53.556;9.944;2023-04-24T02:21:05;4.95;;;2.80;;
17141;SDS011;32805;53.556;9.944;2023-04-24T02:23:34;2.70;;;2.20;;
17141;SDS011;32805;53.556;9.944;2023-04-24T02:26:02;2.58;;;2.38;;
17141;SDS011;32805;53.556;9.944;2023-04-24T02:28:29;2.40;;;2.20;;
17141;SDS011;32805;53.556;9.944;2023-04-24T02:30:57;2.67;;;2.47;;
17141;SDS011;32805;53.556;9.944;2023-04-24T02:33:26;4.70;;;3.05;;
17141;SDS011;32805;53.556;9.944;2023-04-24T02:35:54;3.05;;;2.63;;
17141;SDS011;32805;53.556;9.944;2023-04-24T02:38:21;3.55;;;3.15;;
17141;SDS011;32805;53.556;9.944;2023-04-24T02:40:49;3.67;;;3.33;;
17141;SDS011;32805;53.556;9.944;2023-04-24T02:43:17;3.35;;;2.92;;
17141;SDS011;32805;53.556;9.944;2023-04-24T02:45:44;3.30;;;3.00;;
17141;SDS011;32805;53.556;9.944;2023-04-24T02:48:12;3.88;;;3.40;;
17141;SDS011;32805;53.556;9.944;2023-04-24T02:50:41;3.92;;;3.15;;
17141;SDS011;32805;53.556;9.944;2023-04-24T02:53:09;3.15;;;2.95;;
17141;SDS011;32805;53.556;9.944;2023-04-24T02:55:36;4.00;;;3.58;;
17141;SDS011;32805;53.556;9.944;2023-04-24T02:58:04;3.50;;;3.00;;
17141;SDS011;32805;53.556;9.944;2023-04-24T03:00:32;3.92;;;3.13;;
17141;SDS011;32805;53.556;9.944;2023-04-24T03:03:00;4.07;;;2.90;;
17141;SDS011;32805;53.556;9.944;2023-04-24T03:05:28;3.03;;;2.75;;
17141;SDS011;32805;53.556;9.944;2023-04-24T03:07:58;3.13;;;2.80;;
17141;SDS011;32805;53.556;9.944;2023-04-24T03:10:25;3.25;;;2.72;;
17141;SDS011;32805;53.556;9.944;2023-04-24T03:12:53;3.05;;;2.72;;
17141;SDS011;32805;53.556;9.944;2023-04-24T03:15:21;2.78;;;2.58;;
17141;SDS011;32805;53.556;9.944;2023-04-24T03:17:49;3.42;;;2.72;;
17141;SDS011;32805;53.556;9.944;2023-04-24T03:20:17;13.60;;;5.82;;
17141;SDS011;32805;53.556;9.944;2023-04-24T03:22:45;4.97;;;3.15;;
17141;SDS011;32805;53.556;9.944;2023-04-24T03:25:14;3.10;;;2.67;;
17141;SDS011;32805;53.556;9.944;2023-04-24T03:27:41;3.80;;;2.85;;
17141;SDS011;32805;53.556;9.944;2023-04-24T03:30:29;3.90;;;3.10;;
17141;SDS011;32805;53.556;9.944;2023-04-24T03:32:59;2.72;;;2.47;;
17141;SDS011;32805;53.556;9.944;2023-04-24T03:35:31;3.22;;;2.35;;
17141;SDS011;32805;53.556;9.944;2023-04-24T03:38:01;4.55;;;2.45;;
17141;SDS011;32805;53.556;9.944;2023-04-24T03:40:56;2.75;;;2.25;;
17141;SDS011;32805;53.556;9.944;2023-04-24T03:43:36;3.85;;;2.40;;
17141;SDS011;32805;53.556;9.944;2023-04-24T03:46:05;2.72;;;2.45;;
17141;SDS011;32805;53.556;9.944;2023-04-24T03:48:37;3.65;;;2.55;;
17141;SDS011;32805;53.556;9.944;2023-04-24T03:51:06;3.70;;;3.03;;
17141;SDS011;32805;53.556;9.944;2023-04-24T03:53:35;4.22;;;3.33;;
17141;SDS011;32805;53.556;9.944;2023-04-24T03:56:04;3.20;;;2.22;;
17141;SDS011;32805;53.556;9.944;2023-04-24T03:58:32;2.22;;;2.00;;
17141;SDS011;32805;53.556;9.944;2023-04-24T04:01:00;3.13;;;2.40;;
17141;SDS011;32805;53.556;9.944;2023-04-24T04:03:53;3.10;;;2.13;;
17141;SDS011;32805;53.556;9.944;2023-04-24T04:06:24;3.35;;;2.20;;
17141;SDS011;32805;53.556;9.944;2023-04-24T04:08:54;1.70;;;1.60;;
17141;SDS011;32805;53.556;9.944;2023-04-24T04:11:24;3.90;;;2.17;;
17141;SDS011;32805;53.556;9.944;2023-04-24T04:13:52;2.47;;;2.00;;
17141;SDS011;32805;53.556;9.944;2023-04-24T04:16:20;1.70;;;1.60;;
17141;SDS011;32805;53.556;9.944;2023-04-24T04:18:52;2.50;;;2.30;;
17141;SDS011;32805;53.556;9.944;2023-04-24T04:21:20;2.20;;;2.00;;
17141;SDS011;32805;53.556;9.944;2023-04-24T04:23:51;2.90;;;1.75;;
17141;SDS011;32805;53.556;9.944;2023-04-24T04:26:26;2.08;;;1.90;;
17141;SDS011;32805;53.556;9.944;2023-04-24T04:29:00;2.22;;;1.73;;
17141;SDS011;32805;53.556;9.944;2023-04-24T04:31:30;2.53;;;1.70;;
17141;SDS011;32805;53.556;9.944;2023-04-24T04:34:02;2.25;;;1.92;;
17141;SDS011;32805;53.556;9.944;2023-04-24T04:36:31;2.00;;;1.80;;
17141;SDS011;32805;53.556;9.944;2023-04-24T04:39:15;2.22;;;1.90;;
17141;SDS011;32805;53.556;9.944;2023-04-24T04:41:59;2.00;;;1.80;;
17141;SDS011;32805;53.556;9.944;2023-04-24T04:44:34;2.20;;;1.80;;
17141;SDS011;32805;53.556;9.944;2023-04-24T04:47:05;3.08;;;1.67;;
17141;SDS011;32805;53.556;9.944;2023-04-24T04:49:36;1.65;;;1.48;;
17141;SDS011;32805;53.556;9.944;2023-04-24T04:52:08;1.85;;;1.60;;
17141;SDS011;32805;53.556;9.944;2023-04-24T04:54:37;2.13;;;1.50;;
17141;SDS011;32805;53.556;9.944;2023-04-24T04:57:06;2.08;;;1.70;;
17141;SDS011;32805;53.556;9.944;2023-04-24T04:59:34;1.70;;;1.50;;
17141;SDS011;32805;53.556;9.944;2023-04-24T05:02:07;2.25;;;1.70;;
17141;SDS011;32805;53.556;9.944;2023-04-24T05:04:35;3.67;;;2.13;;
17141;SDS011;32805;53.556;9.944;2023-04-24T05:07:03;2.17;;;1.70;;
17141;SDS011;32805;53.556;9.944;2023-04-24T05:09:34;3.70;;;1.63;;
17141;SDS011;32805;53.556;9.944;2023-04-24T05:12:04;1.75;;;1.50;;
17141;SDS011;32805;53.556;9.944;2023-04-24T05:14:38;1.77;;;1.40;;
17141;SDS011;32805;53.556;9.944;2023-04-24T05:17:06;2.22;;;1.60;;
17141;SDS011;32805;53.556;9.944;2023-04-24T05:19:34;1.73;;;1.63;;
17141;SDS011;32805;53.556;9.944;2023-04-24T05:22:05;2.47;;;1.55;;
17141;SDS011;32805;53.556;9.944;2023-04-24T05:24:38;1.67;;;1.52;;
17141;SDS011;32805;53.556;9.944;2023-04-24T05:27:12;3.13;;;1.77;;
17141;SDS011;32805;53.556;9.944;2023-04-24T05:29:42;1.60;;;1.50;;
17141;SDS011;32805;53.556;9.944;2023-04-24T05:32:12;1.98;;;1.73;;
17141;SDS011;32805;53.556;9.944;2023-04-24T05:34:40;1.83;;;1.65;;
17141;SDS011;32805;53.556;9.944;2023-04-24T05:37:08;3.30;;;1.60;;
17141;SDS011;32805;53.556;9.944;2023-04-24T05:39:36;1.48;;;1.38;;
17141;SDS011;32805;53.556;9.944;2023-04-24T05:42:04;3.25;;;2.25;;
17141;SDS011;32805;53.556;9.944;2023-04-24T05:44:31;3.08;;;1.48;;
17141;SDS011;32805;53.556;9.944;2023-04-24T05:47:00;1.40;;;1.30;;
17141;SDS011;32805;53.556;9.944;2023-04-24T05:49:28;2.20;;;1.40;;
17141;SDS011;32805;53.556;9.944;2023-04-24T05:51:56;2.95;;;1.50;;
17141;SDS011;32805;53.556;9.944;2023-04-24T05:54:24;1.85;;;1.48;;
17141;SDS011;32805;53.556;9.944;2023-04-24T05:56:52;1.70;;;1.27;;
17141;SDS011;32805;53.556;9.944;2023-04-24T05:59:30;2.58;;;1.50;;
17141;SDS011;32805;53.556;9.944;2023-04-24T06:01:57;3.38;;;1.67;;
17141;SDS011;32805;53.556;9.944;2023-04-24T06:04:26;1.73;;;1.60;;
17141;SDS011;32805;53.556;9.944;2023-04-24T06:06:57;2.55;;;1.67;;
17141;SDS011;32805;53.556;9.944;2023-04-24T06:09:25;2.03;;;1.70;;
17141;SDS011;32805;53.556;9.944;2023-04-24T06:11:53;1.42;;;1.27;;
17141;SDS011;32805;53.556;9.944;2023-04-24T06:14:24;1.60;;;1.50;;
17141;SDS011;32805;53.556;9.944;2023-04-24T06:17:15;1.60;;;1.50;;
17141;SDS011;32805;53.556;9.944;2023-04-24T06:19:45;1.80;;;1.70;;
17141;SDS011;32805;53.556;9.944;2023-04-24T06:22:13;6.47;;;1.92;;
17141;SDS011;32805;53.556;9.944;2023-04-24T06:24:41;2.33;;;1.70;;
17141;SDS011;32805;53.556;9.944;2023-04-24T06:27:08;1.58;;;1.48;;
17141;SDS011;32805;53.556;9.944;2023-04-24T06:29:39;2.67;;;1.77;;
17141;SDS011;32805;53.556;9.944;2023-04-24T06:32:07;2.13;;;1.70;;
17141;SDS011;32805;53.556;9.944;2023-04-24T06:34:35;2.42;;;1.67;;
17141;SDS011;32805;53.556;9.944;2023-04-24T06:37:04;2.53;;;1.90;;
17141;SDS011;32805;53.556;9.944;2023-04-24T06:39:32;2.47;;;1.40;;
17141;SDS011;32805;53.556;9.944;2023-04-24T06:41:59;2.10;;;1.90;;
17141;SDS011;32805;53.556;9.944;2023-04-24T06:44:27;1.73;;;1.60;;
17141;SDS011;32805;53.556;9.944;2023-04-24T06:46:54;1.77;;;1.67;;
17141;SDS011;32805;53.556;9.944;2023-04-24T06:49:22;2.78;;;1.80;;
17141;SDS011;32805;53.556;9.944;2023-04-24T06:51:50;2.80;;;2.00;;
17141;SDS011;32805;53.556;9.944;2023-04-24T06:54:19;3.58;;;2.03;;
17141;SDS011;32805;53.556;9.944;2023-04-24T06:56:47;3.03;;;2.20;;
17141;SDS011;32805;53.556;9.944;2023-04-24T06:59:15;3.95;;;1.83;;
17141;SDS011;32805;53.556;9.944;2023-04-24T07:01:43;3.53;;;2.00;;
17141;SDS011;32805;53.556;9.944;2023-04-24T07:04:11;2.72;;;2.35;;
17141;SDS011;32805;53.556;9.944;2023-04-24T07:06:39;2.70;;;2.17;;
17141;SDS011;32805;53.556;9.944;2023-04-24T07:09:07;4.53;;;2.60;;
17141;SDS011;32805;53.556;9.944;2023-04-24T07:11:37;2.50;;;2.30;;
17141;SDS011;32805;53.556;9.944;2023-04-24T07:14:06;2.47;;;2.28;;
17141;SDS011;32805;53.556;9.944;2023-04-24T07:16:34;5.50;;;3.80;;
17141;SDS011;32805;53.556;9.944;2023-04-24T07:19:02;4.50;;;3.70;;
17141;SDS011;32805;53.556;9.944;2023-04-24T07:21:30;13.60;;;6.50;;
17141;SDS011;32805;53.556;9.944;2023-04-24T07:23:58;4.22;;;3.40;;
17141;SDS011;32805;53.556;9.944;2023-04-24T07:26:26;4.95;;;3.60;;
17141;SDS011;32805;53.556;9.944;2023-04-24T07:28:55;7.43;;;4.90;;
17141;SDS011;32805;53.556;9.944;2023-04-24T07:31:23;6.05;;;3.55;;
17141;SDS011;32805;53.556;9.944;2023-04-24T07:33:50;5.60;;;4.68;;
17141;SDS011;32805;53.556;9.944;2023-04-24T07:36:18;8.20;;;5.60;;
17141;SDS011;32805;53.556;9.944;2023-04-24T07:38:46;6.07;;;4.38;;
17141;SDS011;32805;53.556;9.944;2023-04-24T07:41:13;9.82;;;6.80;;
17141;SDS011;32805;53.556;9.944;2023-04-24T07:43:41;5.43;;;4.78;;
17141;SDS011;32805;53.556;9.944;2023-04-24T07:46:10;6.45;;;5.10;;
17141;SDS011;32805;53.556;9.944;2023-04-24T07:48:38;4.97;;;4.10;;
17141;SDS011;32805;53.556;9.944;2023-04-24T07:51:06;6.35;;;4.60;;
17141;SDS011;32805;53.556;9.944;2023-04-24T07:53:36;5.13;;;4.47;;
17141;SDS011;32805;53.556;9.944;2023-04-24T07:56:04;8.15;;;4.78;;
17141;SDS011;32805;53.556;9.944;2023-04-24T07:58:32;4.22;;;3.85;;
17141;SDS011;32805;53.556;9.944;2023-04-24T08:00:59;5.78;;;4.47;;
17141;SDS011;32805;53.556;9.944;2023-04-24T08:03:28;5.03;;;3.95;;
17141;SDS011;32805;53.556;9.944;2023-04-24T08:05:56;4.70;;;3.97;;
17141;SDS011;32805;53.556;9.944;2023-04-24T08:08:24;6.55;;;5.80;;
17141;SDS011;32805;53.556;9.944;2023-04-24T08:10:53;4.65;;;4.15;;
17141;SDS011;32805;53.556;9.944;2023-04-24T08:13:21;7.38;;;5.90;;
17141;SDS011;32805;53.556;9.944;2023-04-24T08:15:49;5.10;;;4.60;;
17141;SDS011;32805;53.556;9.944;2023-04-24T08:18:17;4.97;;;4.47;;
17141;SDS011;32805;53.556;9.944;2023-04-24T08:20:45;6.72;;;5.38;;
17141;SDS011;32805;53.556;9.944;2023-04-24T08:23:13;6.65;;;5.45;;
17141;SDS011;32805;53.556;9.944;2023-04-24T08:25:41;5.90;;;5.40;;
17141;SDS011;32805;53.556;9.944;2023-04-24T08:28:09;6.43;;;4.55;;
17141;SDS011;32805;53.556;9.944;2023-04-24T08:30:36;5.80;;;5.25;;
17141;SDS011;32805;53.556;9.944;2023-04-24T08:33:05;4.82;;;4.43;;
17141;SDS011;32805;53.556;9.944;2023-04-24T08:35:33;4.90;;;4.40;;
17141;SDS011;32805;53.556;9.944;2023-04-24T08:38:02;4.78;;;4.38;;
17141;SDS011;32805;53.556;9.944;2023-04-24T08:40:30;7.50;;;4.40;;
17141;SDS011;32805;53.556;9.944;2023-04-24T08:43:01;6.82;;;5.30;;
17141;SDS011;32805;53.556;9.944;2023-04-24T08:45:30;7.60;;;5.68;;
17141;SDS011;32805;53.556;9.944;2023-04-24T08:48:00;13.00;;;8.65;;
17141;SDS011;32805;53.556;9.944;2023-04-24T08:50:28;7.13;;;5.40;;
17141;SDS011;32805;53.556;9.944;2023-04-24T08:52:56;7.00;;;6.30;;
17141;SDS011;32805;53.556;9.944;2023-04-24T08:55:26;5.68;;;5.07;;
17141;SDS011;32805;53.556;9.944;2023-04-24T08:57:54;6.05;;;5.07;;
17141;SDS011;32805;53.556;9.944;2023-04-24T09:00:22;6.38;;;5.10;;
17141;SDS011;32805;53.556;9.944;2023-04-24T09:02:49;7.80;;;6.55;;
17141;SDS011;32805;53.556;9.944;2023-04-24T09:05:20;7.97;;;6.68;;
17141;SDS011;32805;53.556;9.944;2023-04-24T09:07:53;8.02;;;5.78;;
17141;SDS011;32805;53.556;9.944;2023-04-24T09:10:23;8.88;;;6.63;;
17141;SDS011;32805;53.556;9.944;2023-04-24T09:12:52;6.60;;;5.90;;
17141;SDS011;32805;53.556;9.944;2023-04-24T09:15:21;8.30;;;5.55;;
17141;SDS011;32805;53.556;9.944;2023-04-24T09:17:48;5.68;;;5.07;;
17141;SDS011;32805;53.556;9.944;2023-04-24T09:20:16;4.95;;;4.45;;
17141;SDS011;32805;53.556;9.944;2023-04-24T09:22:44;6.25;;;5.63;;
17141;SDS011;32805;53.556;9.944;2023-04-24T09:25:12;5.57;;;5.03;;
17141;SDS011;32805;53.556;9.944;2023-04-24T09:27:43;6.28;;;5.13;;
17141;SDS011;32805;53.556;9.944;2023-04-24T09:30:14;7.97;;;6.07;;
17141;SDS011;32805;53.556;9.944;2023-04-24T09:32:48;5.28;;;4.70;;
17141;SDS011;32805;53.556;9.944;2023-04-24T09:35:16;5.50;;;4.50;;
17141;SDS011;32805;53.556;9.944;2023-04-24T09:37:45;6.80;;;6.07;;
17141;SDS011;32805;53.556;9.944;2023-04-24T09:40:15;5.72;;;4.90;;
17141;SDS011;32805;53.556;9.944;2023-04-24T09:42:44;7.07;;;6.30;;
17141;SDS011;32805;53.556;9.944;2023-04-24T09:45:14;6.30;;;5.25;;
17141;SDS011;32805;53.556;9.944;2023-04-24T09:47:42;5.57;;;5.07;;
17141;SDS011;32805;53.556;9.944;2023-04-24T09:50:13;8.65;;;6.80;;
17141;SDS011;32805;53.556;9.944;2023-04-24T09:52:43;6.95;;;6.15;;
17141;SDS011;32805;53.556;9.944;2023-04-24T09:55:13;7.07;;;5.90;;
17141;SDS011;32805;53.556;9.944;2023-04-24T09:57:53;6.45;;;5.82;;
17141;SDS011;32805;53.556;9.944;2023-04-24T10:00:23;7.47;;;6.78;;
17141;SDS011;32805;53.556;9.944;2023-04-24T10:02:56;5.90;;;5.30;;
17141;SDS011;32805;53.556;9.944;2023-04-24T10:05:29;7.65;;;5.55;;
17141;SDS011;32805;53.556;9.944;2023-04-24T10:08:02;8.98;;;6.30;;
17141;SDS011;32805;53.556;9.944;2023-04-24T10:10:30;6.88;;;6.13;;
17141;SDS011;32805;53.556;9.944;2023-04-24T10:12:59;9.70;;;6.60;;
17141;SDS011;32805;53.556;9.944;2023-04-24T10:15:28;8.70;;;7.13;;
17141;SDS011;32805;53.556;9.944;2023-04-24T10:17:57;8.80;;;7.90;;
17141;SDS011;32805;53.556;9.944;2023-04-24T10:20:27;10.55;;;7.35;;
17141;SDS011;32805;53.556;9.944;2023-04-24T10:22:56;9.65;;;7.60;;
17141;SDS011;32805;53.556;9.944;2023-04-24T10:25:25;8.93;;;8.02;;
17141;SDS011;32805;53.556;9.944;2023-04-24T10:27:54;9.23;;;7.28;;
17141;SDS011;32805;53.556;9.944;2023-04-24T10:30:26;11.30;;;8.70;;
17141;SDS011;32805;53.556;9.944;2023-04-24T10:32:56;9.18;;;8.02;;
17141;SDS011;32805;53.556;9.944;2023-04-24T10:35:24;12.93;;;9.02;;
17141;SDS011;32805;53.556;9.944;2023-04-24T10:37:54;10.73;;;8.57;;
17141;SDS011;32805;53.556;9.944;2023-04-24T10:40:25;15.50;;;10.15;;
17141;SDS011;32805;53.556;9.944;2023-04-24T10:42:54;13.27;;;10.27;;
17141;SDS011;32805;53.556;9.944;2023-04-24T10:45:24;13.23;;;9.70;;
17141;SDS011;32805;53.556;9.944;2023-04-24T10:47:53;11.15;;;9.60;;
17141;SDS011;32805;53.556;9.944;2023-04-24T10:50:41;9.70;;;8.70;;
17141;SDS011;32805;53.556;9.944;2023-04-24T10:53:12;10.52;;;8.55;;
17141;SDS011;32805;53.556;9.944;2023-04-24T10:55:42;9.43;;;8.25;;
17141;SDS011;32805;53.556;9.944;2023-04-24T10:58:11;8.32;;;7.43;;
17141;SDS011;32805;53.556;9.944;2023-04-24T11:00:41;9.07;;;8.10;;
17141;SDS011;32805;53.556;9.944;2023-04-24T11:03:23;11.60;;;8.45;;
17141;SDS011;32805;53.556;9.944;2023-04-24T11:05:53;8.27;;;7.47;;
17141;SDS011;32805;53.556;9.944;2023-04-24T11:08:26;8.50;;;7.60;;
17141;SDS011;32805;53.556;9.944;2023-04-24T11:10:59;8.63;;;6.68;;
17141;SDS011;32805;53.556;9.944;2023-04-24T11:16:27;10.93;;;8.13;;
17141;SDS011;32805;53.556;9.944;2023-04-24T11:19:01;8.23;;;7.43;;
17141;SDS011;32805;53.556;9.944;2023-04-24T11:21:40;8.27;;;7.43;;
17141;SDS011;32805;53.556;9.944;2023-04-24T11:24:24;8.27;;;7.32;;
17141;SDS011;32805;53.556;9.944;2023-04-24T11:26:57;7.50;;;6.80;;
17141;SDS011;32805;53.556;9.944;2023-04-24T11:29:38;7.88;;;6.93;;
17141;SDS011;32805;53.556;9.944;2023-04-24T11:32:23;8.52;;;7.15;;
17141;SDS011;32805;53.556;9.944;2023-04-24T11:34:53;8.02;;;6.72;;
17141;SDS011;32805;53.556;9.944;2023-04-24T11:37:22;9.82;;;6.80;;
17141;SDS011;32805;53.556;9.944;2023-04-24T11:39:54;8.23;;;7.35;;
17141;SDS011;32805;53.556;9.944;2023-04-24T11:42:23;8.30;;;7.13;;
17141;SDS011;32805;53.556;9.944;2023-04-24T11:44:52;8.10;;;7.30;;
17141;SDS011;32805;53.556;9.944;2023-04-24T11:47:27;8.00;;;7.20;;
17141;SDS011;32805;53.556;9.944;2023-04-24T11:49:57;6.43;;;5.70;;
17141;SDS011;32805;53.556;9.944;2023-04-24T11:52:26;7.22;;;6.53;;
17141;SDS011;32805;53.556;9.944;2023-04-24T11:54:54;7.93;;;6.72;;
17141;SDS011;32805;53.556;9.944;2023-04-24T11:57:23;7.25;;;6.25;;
17141;SDS011;32805;53.556;9.944;2023-04-24T11:59:54;6.97;;;6.10;;
17141;SDS011;32805;53.556;9.944;2023-04-24T12:02:22;7.15;;;6.28;;
17141;SDS011;32805;53.556;9.944;2023-04-24T12:04:51;8.57;;;6.70;;
17141;SDS011;32805;53.556;9.944;2023-04-24T12:07:22;8.52;;;6.93;;
17141;SDS011;32805;53.556;9.944;2023-04-24T12:09:55;7.65;;;6.75;;
17141;SDS011;32805;53.556;9.944;2023-04-24T12:12:24;7.15;;;6.05;;
17141;SDS011;32805;53.556;9.944;2023-04-24T12:14:53;6.80;;;5.82;;
17141;SDS011;32805;53.556;9.944;2023-04-24T12:17:23;8.13;;;5.72;;
17141;SDS011;32805;53.556;9.944;2023-04-24T12:19:57;6.88;;;5.55;;
17141;SDS011;32805;53.556;9.944;2023-04-24T12:22:27;7.55;;;5.88;;
17141;SDS011;32805;53.556;9.944;2023-04-24T12:24:55;6.15;;;5.55;;
17141;SDS011;32805;53.556;9.944;2023-04-24T12:27:24;6.28;;;5.07;;
17141;SDS011;32805;53.556;9.944;2023-04-24T12:29:52;5.75;;;5.13;;
17141;SDS011;32805;53.556;9.944;2023-04-24T12:32:20;7.70;;;5.97;;
17141;SDS011;32805;53.556;9.944;2023-04-24T12:34:49;7.78;;;5.90;;
17141;SDS011;32805;53.556;9.944;2023-04-24T12:37:17;6.72;;;5.60;;
17141;SDS011;32805;53.556;9.944;2023-04-24T12:39:59;6.07;;;5.47;;
17141;SDS011;32805;53.556;9.944;2023-04-24T12:42:28;6.45;;;5.78;;
17141;SDS011;32805;53.556;9.944;2023-04-24T12:44:56;6.90;;;6.20;;
17141;SDS011;32805;53.556;9.944;2023-04-24T12:47:26;6.97;;;6.03;;
17141;SDS011;32805;53.556;9.944;2023-04-24T12:49:54;6.03;;;5.43;;
17141;SDS011;32805;53.556;9.944;2023-04-24T12:52:22;8.45;;;6.18;;
17141;SDS011;32805;53.556;9.944;2023-04-24T12:54:52;8.15;;;7.28;;
17141;SDS011;32805;53.556;9.944;2023-04-24T12:57:22;7.78;;;6.15;;
17141;SDS011;32805;53.556;9.944;2023-04-24T12:59:51;7.00;;;6.30;;
17141;SDS011;32805;53.556;9.944;2023-04-24T13:02:20;7.97;;;6.28;;
17141;SDS011;32805;53.556;9.944;2023-04-24T13:04:49;6.35;;;5.75;;
17141;SDS011;32805;53.556;9.944;2023-04-24T13:07:17;7.85;;;5.28;;
17141;SDS011;32805;53.556;9.944;2023-04-24T13:09:45;6.90;;;5.57;;
17141;SDS011;32805;53.556;9.944;2023-04-24T13:12:14;6.72;;;5.85;;
17141;SDS011;32805;53.556;9.944;2023-04-24T13:14:44;7.60;;;5.95;;
17141;SDS011;32805;53.556;9.944;2023-04-24T13:17:12;5.82;;;5.20;;
17141;SDS011;32805;53.556;9.944;2023-04-24T13:19:41;6.30;;;5.70;;
17141;SDS011;32805;53.556;9.944;2023-04-24T13:22:10;6.15;;;5.40;;
17141;SDS011;32805;53.556;9.944;2023-04-24T13:24:39;5.05;;;4.55;;
17141;SDS011;32805;53.556;9.944;2023-04-24T13:27:07;5.40;;;4.90;;
17141;SDS011;32805;53.556;9.944;2023-04-24T13:29:35;5.35;;;4.85;;
17141;SDS011;32805;53.556;9.944;2023-04-24T13:32:05;5.43;;;4.90;;
17141;SDS011;32805;53.556;9.944;2023-04-24T13:34:33;4.82;;;4.22;;
17141;SDS011;32805;53.556;9.944;2023-04-24T13:37:01;5.72;;;4.45;;
17141;SDS011;32805;53.556;9.944;2023-04-24T13:39:30;4.50;;;3.92;;
17141;SDS011;32805;53.556;9.944;2023-04-24T13:41:58;5.20;;;4.47;;
17141;SDS011;32805;53.556;9.944;2023-04-24T13:44:29;4.88;;;3.95;;
17141;SDS011;32805;53.556;9.944;2023-04-24T13:46:57;6.30;;;4.75;;
17141;SDS011;32805;53.556;9.944;2023-04-24T13:49:26;4.95;;;4.55;;
17141;SDS011;32805;53.556;9.944;2023-04-24T13:51:57;4.47;;;4.07;;
17141;SDS011;32805;53.556;9.944;2023-04-24T13:54:25;4.40;;;4.00;;
17141;SDS011;32805;53.556;9.944;2023-04-24T13:56:52;3.50;;;3.20;;
17141;SDS011;32805;53.556;9.944;2023-04-24T13:59:21;4.28;;;3.88;;
17141;SDS011;32805;53.556;9.944;2023-04-24T14:01:49;4.32;;;4.00;;
17141;SDS011;32805;53.556;9.944;2023-04-24T14:04:16;4.90;;;4.50;;
17141;SDS011;32805;53.556;9.944;2023-04-24T14:06:46;4.70;;;3.95;;
17141;SDS011;32805;53.556;9.944;2023-04-24T14:09:13;4.38;;;3.97;;
17141;SDS011;32805;53.556;9.944;2023-04-24T14:11:41;4.70;;;4.20;;
17141;SDS011;32805;53.556;9.944;2023-04-24T14:14:09;4.07;;;3.78;;
17141;SDS011;32805;53.556;9.944;2023-04-24T14:16:37;4.70;;;4.30;;
17141;SDS011;32805;53.556;9.944;2023-04-24T14:19:05;4.82;;;4.43;;
17141;SDS011;32805;53.556;9.944;2023-04-24T14:21:33;4.05;;;3.75;;
17141;SDS011;32805;53.556;9.944;2023-04-24T14:24:02;4.68;;;4.15;;
17141;SDS011;32805;53.556;9.944;2023-04-24T14:26:30;5.43;;;4.93;;
17141;SDS011;32805;53.556;9.944;2023-04-24T14:29:03;9.02;;;5.90;;
17141;SDS011;32805;53.556;9.944;2023-04-24T14:31:39;6.82;;;5.47;;
17141;SDS011;32805;53.556;9.944;2023-04-24T14:34:07;5.28;;;4.78;;
17141;SDS011;32805;53.556;9.944;2023-04-24T14:36:35;5.40;;;4.90;;
17141;SDS011;32805;53.556;9.944;2023-04-24T14:39:04;6.60;;;6.00;;
17141;SDS011;32805;53.556;9.944;2023-04-24T14:41:33;7.10;;;6.40;;
17141;SDS011;32805;53.556;9.944;2023-04-24T14:44:02;9.90;;;7.75;;
17141;SDS011;32805;53.556;9.944;2023-04-24T14:46:30;10.60;;;8.98;;
17141;SDS011;32805;53.556;9.944;2023-04-24T14:48:58;8.43;;;7.55;;
17141;SDS011;32805;53.556;9.944;2023-04-24T14:51:26;7.90;;;6.85;;
17141;SDS011;32805;53.556;9.944;2023-04-24T14:53:54;10.32;;;7.93;;
17141;SDS011;32805;53.556;9.944;2023-04-24T14:56:22;8.80;;;8.00;;
17141;SDS011;32805;53.556;9.944;2023-04-24T14:58:50;10.20;;;7.93;;
17141;SDS011;32805;53.556;9.944;2023-04-24T15:01:18;9.50;;;8.52;;
17141;SDS011;32805;53.556;9.944;2023-04-24T15:03:46;11.43;;;7.78;;